San Antonio, Texas
Traffic Map
Current Weather Conditions
San Antonio, Texas
Clear
Clear

Feels Like: 5°
Wind Chill: Ceiling: Unl
Heat Index: Visibility: 10mi
Dew Point: -1° Wind: 8mph
Humidity: 56% Direction: 150° (SSE)
Pressure: 30.12in Gusts: 0mph
Raw Report DataKSKF 160658Z AUTO 15007KT 10SM CLR 08/M01 A3012 RMK AO2 SLP199 T00761008 $
Traffic Incident Summary
Active as of:
Severity:
Category:
InformationThere was an issue retrieving the traffic information for this location. Please try a different location or try again shortly.
Advertisements
At Last! Intellicast now available for iPhone and Android